Time;durP1;ratioP1;P1;durP2;ratioP2;P2;SDS_P1;SDS_P2;PMS_P1;PMS_P2;Temp;Humidity;BMP_temperature;BMP_pressure;BME280_temperature;BME280_humidity;BME280_pressure;Samples;Min_cycle;Max_cycle;Signal;HPM_P1;HPM_P2
2023/11/21 07:40:42;;;;;;;10.70;4.43;;;7.50;99.90;;;;;;5578966;23;20578;-71
2023/11/21 07:43:08;;;;;;;10.10;4.10;;;7.50;99.90;;;;;;4950872;28;20658;-70
2023/11/21 07:45:34;;;;;;;9.07;4.20;;;7.50;99.90;;;;;;4952444;28;20557;-73
2023/11/21 07:48:03;;;;;;;11.27;4.83;;;7.50;99.90;;;;;;4952253;29;20198;-72
2023/11/21 07:50:29;;;;;;;9.33;4.40;;;7.50;99.90;;;;;;4934748;29;20561;-72
2023/11/21 07:52:55;;;;;;;13.53;4.70;;;7.60;99.90;;;;;;4952449;29;20193;-72
2023/11/21 07:55:21;;;;;;;12.83;4.57;;;7.60;99.90;;;;;;4952285;28;20190;-73
2023/11/21 07:57:46;;;;;;;9.47;3.93;;;7.60;99.90;;;;;;4935313;29;20606;-73
2023/11/21 08:00:12;;;;;;;8.37;4.30;;;7.60;99.90;;;;;;4953705;28;20261;-72
2023/11/21 08:02:45;;;;;;;8.93;4.57;;;7.60;99.90;;;;;;4958252;28;20177;-72
2023/11/21 08:05:12;;;;;;;10.60;4.30;;;7.60;99.90;;;;;;4952034;28;20269;-70
2023/11/21 08:07:38;;;;;;;8.27;4.13;;;7.60;99.90;;;;;;4952229;28;20190;-70
2023/11/21 08:10:05;;;;;;;8.27;4.43;;;7.60;99.90;;;;;;4951186;28;20214;-71
2023/11/21 08:12:30;;;;;;;10.07;3.70;;;7.70;99.90;;;;;;4952256;28;20211;-71
2023/11/21 08:14:56;;;;;;;13.27;4.20;;;7.70;99.90;;;;;;4952112;29;20617;-71
2023/11/21 08:17:22;;;;;;;10.53;4.17;;;7.70;99.90;;;;;;4952190;28;20186;-70
2023/11/21 08:19:49;;;;;;;10.47;4.60;;;7.70;99.90;;;;;;4951333;28;20186;-71
2023/11/21 08:22:17;;;;;;;13.60;4.50;;;7.70;99.90;;;;;;4949380;29;20254;-72
2023/11/21 08:24:43;;;;;;;11.03;4.23;;;7.70;99.90;;;;;;4952009;29;20186;-72
2023/11/21 08:27:09;;;;;;;13.13;4.40;;;7.80;99.90;;;;;;4960124;28;20186;-72
2023/11/21 08:29:36;;;;;;;8.97;4.30;;;7.80;99.90;;;;;;4951391;28;20205;-71
2023/11/21 08:32:02;;;;;;;10.73;4.30;;;7.80;99.90;;;;;;4951913;29;20182;-72
2023/11/21 08:34:28;;;;;;;13.33;5.27;;;7.80;99.90;;;;;;4952127;29;20217;-72
2023/11/21 08:36:55;;;;;;;11.63;5.83;;;7.90;99.90;;;;;;4951562;29;20738;-72
2023/11/21 08:39:24;;;;;;;15.40;5.77;;;7.90;99.90;;;;;;4951323;29;20218;-71
2023/11/21 08:41:50;;;;;;;12.83;6.17;;;7.90;99.90;;;;;;4947023;28;20296;-72
2023/11/21 08:44:17;;;;;;;12.80;5.93;;;7.90;99.90;;;;;;4951799;29;20269;-72
2023/11/21 08:46:44;;;;;;;13.27;6.50;;;8.00;99.90;;;;;;4951903;29;20170;-72
2023/11/21 08:49:11;;;;;;;15.97;6.67;;;8.00;99.90;;;;;;4951420;29;20555;-72
2023/11/21 08:51:37;;;;;;;14.93;6.80;;;8.10;99.90;;;;;;4940931;28;20206;-71
2023/11/21 08:54:07;;;;;;;16.47;7.70;;;8.10;99.90;;;;;;4951567;29;20556;-72
2023/11/21 08:56:33;;;;;;;18.93;9.00;;;8.10;99.90;;;;;;4951923;29;20269;-72
2023/11/21 08:59:02;;;;;;;17.20;7.87;;;8.20;99.90;;;;;;4951776;28;20268;-72
2023/11/21 09:01:28;;;;;;;17.27;8.17;;;8.20;99.90;;;;;;4959115;28;20285;-72
2023/11/21 09:03:53;;;;;;;16.53;8.43;;;8.20;99.90;;;;;;4934557;29;20622;-73
2023/11/21 09:06:19;;;;;;;16.33;7.47;;;8.30;99.90;;;;;;4952860;28;20249;-72
2023/11/21 09:08:44;;;;;;;15.60;7.73;;;8.30;99.90;;;;;;4955490;29;20242;-72
2023/11/21 09:11:10;;;;;;;15.10;8.03;;;8.40;99.90;;;;;;4954680;28;20752;-71
2023/11/21 09:13:36;;;;;;;13.60;7.60;;;8.50;99.90;;;;;;4946439;29;20179;-72
2023/11/21 09:16:02;;;;;;;18.30;8.03;;;8.50;99.90;;;;;;4963238;28;20673;-71
2023/11/21 09:18:27;;;;;;;16.77;8.10;;;8.60;99.90;;;;;;4955405;29;20194;-72
2023/11/21 09:20:53;;;;;;;23.53;9.33;;;8.90;99.90;;;;;;4941374;29;20274;-71
2023/11/21 09:23:18;;;;;;;19.27;9.40;;;9.10;99.90;;;;;;4955273;29;20270;-71
2023/11/21 09:25:46;;;;;;;19.27;9.00;;;9.10;99.90;;;;;;4955272;29;20198;-71
2023/11/21 09:28:12;;;;;;;21.10;10.00;;;9.30;99.90;;;;;;4954998;29;20194;-72
2023/11/21 09:30:38;;;;;;;22.90;9.63;;;9.40;99.90;;;;;;4954562;28;20206;-72
2023/11/21 09:33:08;;;;;;;20.17;9.60;;;9.60;99.90;;;;;;4954994;28;20273;-72
2023/11/21 09:35:33;;;;;;;16.47;8.67;;;9.70;99.90;;;;;;4955145;28;20202;-73
2023/11/21 09:38:01;;;;;;;18.67;8.70;;;9.70;99.90;;;;;;4955101;29;20186;-72
2023/11/21 09:40:27;;;;;;;16.80;6.77;;;9.70;99.90;;;;;;4936998;29;20574;-71
2023/11/21 09:42:56;;;;;;;14.07;6.37;;;9.70;99.90;;;;;;4955108;29;20191;-71
2023/11/21 09:45:27;;;;;;;11.90;5.93;;;9.80;99.90;;;;;;4954712;29;20182;-72
2023/11/21 09:47:57;;;;;;;11.23;5.07;;;9.80;99.90;;;;;;4937693;29;20685;-72
2023/11/21 09:50:23;;;;;;;13.13;4.93;;;9.90;99.90;;;;;;4962152;28;20202;-71
2023/11/21 09:52:57;;;;;;;13.60;5.97;;;9.80;99.90;;;;;;4954781;29;20671;-71
2023/11/21 09:55:29;;;;;;;12.67;5.73;;;9.80;99.90;;;;;;4954424;28;20625;-71
2023/11/21 09:57:56;;;;;;;15.70;6.30;;;9.80;99.90;;;;;;4937347;29;20612;-71
2023/11/21 10:00:27;;;;;;;14.87;6.20;;;9.80;99.90;;;;;;4953949;28;20205;-71
2023/11/21 10:02:54;;;;;;;11.07;4.90;;;9.70;99.90;;;;;;4954714;29;20189;-72
2023/11/21 10:05:22;;;;;;;9.50;5.13;;;9.70;99.90;;;;;;4954419;29;20182;-72
2023/11/21 10:07:49;;;;;;;15.07;6.30;;;9.80;99.90;;;;;;4954597;29;20197;-69
2023/11/21 10:10:18;;;;;;;12.90;7.10;;;9.80;99.90;;;;;;4953742;28;20223;-72
2023/11/21 10:12:48;;;;;;;16.60;7.43;;;9.80;99.90;;;;;;4954321;29;20234;-72
2023/11/21 10:15:16;;;;;;;13.57;6.63;;;9.90;99.90;;;;;;4954385;28;20214;-72
2023/11/21 10:17:45;;;;;;;13.10;6.73;;;9.90;99.90;;;;;;4953285;28;20170;-72
2023/11/21 10:20:14;;;;;;;15.43;6.53;;;9.90;99.90;;;;;;4938440;29;20206;-71
2023/11/21 10:22:43;;;;;;;18.73;6.00;;;9.90;99.90;;;;;;4954284;29;20187;-71
2023/11/21 10:25:09;;;;;;;11.40;5.40;;;10.00;99.90;;;;;;4954329;29;20273;-71
2023/11/21 10:27:38;;;;;;;11.73;5.27;;;10.10;99.90;;;;;;4954298;29;20207;-72
2023/11/21 10:30:11;;;;;;;14.27;5.73;;;10.10;99.90;;;;;;4953451;28;20206;-71
2023/11/21 10:32:41;;;;;;;10.97;5.43;;;10.10;99.90;;;;;;4954310;28;20178;-71
2023/11/21 10:35:10;;;;;;;14.50;5.40;;;10.10;99.90;;;;;;4953872;28;20178;-72
2023/11/21 10:37:39;;;;;;;14.33;6.00;;;10.10;99.90;;;;;;4954032;28;20217;-71
2023/11/21 10:40:07;;;;;;;13.87;5.67;;;10.10;99.90;;;;;;4953217;28;20203;-71
2023/11/21 10:42:33;;;;;;;13.83;6.07;;;10.10;99.90;;;;;;4953684;29;20191;-72
2023/11/21 10:45:00;;;;;;;10.27;5.60;;;10.10;99.90;;;;;;4924353;29;20566;-71
2023/11/21 10:47:26;;;;;;;12.23;6.00;;;10.00;99.90;;;;;;4945936;29;20182;-71
2023/11/21 10:49:55;;;;;;;12.33;5.70;;;10.10;99.90;;;;;;4953190;28;20294;-69
2023/11/21 10:52:20;;;;;;;15.33;6.50;;;10.10;99.90;;;;;;4953148;29;20557;-70
2023/11/21 10:54:47;;;;;;;11.87;6.07;;;10.00;99.90;;;;;;4935240;29;20190;-68
2023/11/21 10:57:17;;;;;;;16.20;6.27;;;10.00;99.90;;;;;;4944200;29;20301;-70
2023/11/21 10:59:47;;;;;;;16.53;6.53;;;9.90;99.90;;;;;;4952744;28;20182;-69
2023/11/21 11:02:27;;;;;;;15.73;7.27;;;9.90;99.90;;;;;;4953246;29;20213;-70
2023/11/21 11:04:57;;;;;;;14.23;7.27;;;9.80;99.90;;;;;;4953406;28;20585;-69
2023/11/21 11:07:27;;;;;;;20.27;7.73;;;9.80;99.90;;;;;;4953223;28;20179;-69
2023/11/21 11:09:54;;;;;;;20.90;7.87;;;9.70;99.90;;;;;;4952908;28;20233;-69
2023/11/21 11:12:20;;;;;;;12.73;6.17;;;9.80;99.90;;;;;;4953535;28;20277;-70
2023/11/21 11:14:47;;;;;;;19.73;6.90;;;9.80;99.90;;;;;;4953079;29;20362;-69
2023/11/21 11:17:13;;;;;;;17.70;7.30;;;9.80;99.90;;;;;;4952854;28;20294;-70
2023/11/21 11:19:40;;;;;;;14.97;6.83;;;9.80;99.90;;;;;;4952200;28;20191;-69
2023/11/21 11:22:29;;;;;;;13.33;7.10;;;9.90;99.90;;;;;;4960854;28;20177;-69
2023/11/21 11:25:01;;;;;;;17.33;7.40;;;9.90;99.90;;;;;;4960225;28;20174;-69
2023/11/21 11:27:44;;;;;;;18.03;7.27;;;9.90;99.90;;;;;;4944966;29;20186;-69
2023/11/21 11:30:28;;;;;;;15.93;7.10;;;9.90;99.90;;;;;;4960051;28;20294;-69
2023/11/21 11:33:11;;;;;;;17.00;7.20;;;10.00;99.90;;;;;;4960740;28;20289;-69
2023/11/21 11:36:15;;;;;;;15.03;6.70;;;10.00;99.90;;;;;;4952624;28;20201;-70
2023/11/21 11:38:45;;;;;;;14.73;6.77;;;10.10;99.90;;;;;;4946736;29;20186;-69
2023/11/21 11:41:11;;;;;;;20.70;6.80;;;10.00;99.90;;;;;;4951663;28;20610;-69
2023/11/21 11:43:43;;;;;;;17.23;7.10;;;10.10;99.90;;;;;;4952591;29;20233;-69
2023/11/21 11:46:13;;;;;;;16.83;6.73;;;10.10;99.90;;;;;;4952334;28;20286;-69
2023/11/21 11:48:39;;;;;;;18.97;6.97;;;10.10;99.90;;;;;;4952525;28;20245;-69
2023/11/21 11:51:16;;;;;;;14.37;6.60;;;10.10;99.90;;;;;;4950691;28;20203;-69
2023/11/21 11:53:43;;;;;;;12.17;6.53;;;10.10;99.90;;;;;;4952531;29;20181;-68
2023/11/21 11:56:34;;;;;;;12.80;6.03;;;10.10;99.90;;;;;;4952229;28;20282;-68
2023/11/21 11:59:02;;;;;;;19.43;6.60;;;10.10;99.90;;;;;;4952369;28;20546;-69
2023/11/21 12:01:29;;;;;;;12.43;5.70;;;10.10;99.90;;;;;;4944187;29;20214;-68
2023/11/21 12:04:33;;;;;;;13.63;5.70;;;10.10;99.90;;;;;;4935191;29;20193;-68
2023/11/21 12:07:02;;;;;;;14.23;6.70;;;10.10;99.90;;;;;;4948638;29;20189;-69
2023/11/21 12:09:29;;;;;;;11.17;5.90;;;10.10;99.90;;;;;;4951335;29;20281;-69
2023/11/21 12:11:59;;;;;;;14.60;6.53;;;10.10;99.90;;;;;;4952284;28;20202;-69
2023/11/21 12:14:25;;;;;;;14.53;5.63;;;10.00;99.90;;;;;;4952258;29;20179;-69
2023/11/21 12:16:51;;;;;;;11.87;5.53;;;10.00;99.90;;;;;;4952267;29;20214;-69
2023/11/21 12:19:18;;;;;;;15.97;6.33;;;10.00;99.90;;;;;;4951506;29;20190;-69
2023/11/21 12:21:44;;;;;;;12.30;6.13;;;10.00;99.90;;;;;;4951195;28;20294;-69
2023/11/21 12:24:13;;;;;;;13.87;6.53;;;9.90;99.90;;;;;;4952025;28;20210;-70
2023/11/21 12:26:39;;;;;;;14.43;6.53;;;9.80;99.90;;;;;;4951957;28;20218;-70
2023/11/21 12:29:07;;;;;;;14.97;6.70;;;9.80;99.90;;;;;;4951841;29;20190;-72
2023/11/21 12:31:33;;;;;;;16.00;6.23;;;9.80;99.90;;;;;;4951791;28;20629;-70
2023/11/21 12:33:58;;;;;;;14.47;6.57;;;9.70;99.90;;;;;;4951994;29;20301;-70
2023/11/21 12:36:25;;;;;;;15.03;5.97;;;9.70;99.90;;;;;;4926521;29;20232;-71
2023/11/21 12:38:51;;;;;;;15.80;6.73;;;9.70;99.90;;;;;;4951858;29;20539;-70
2023/11/21 12:41:21;;;;;;;15.03;6.23;;;9.70;99.90;;;;;;4950266;28;20225;-70
2023/11/21 12:43:47;;;;;;;14.93;6.17;;;9.70;99.90;;;;;;4952080;28;20622;-70
2023/11/21 12:46:15;;;;;;;13.10;6.47;;;9.70;99.90;;;;;;4942703;29;20190;-70
2023/11/21 12:48:45;;;;;;;17.03;6.47;;;9.60;99.90;;;;;;4951729;29;20293;-70
2023/11/21 12:51:13;;;;;;;11.80;5.87;;;9.60;99.90;;;;;;4950731;28;20210;-70
2023/11/21 12:53:39;;;;;;;16.37;6.77;;;9.60;99.90;;;;;;4959273;28;20603;-70
2023/11/21 12:56:10;;;;;;;14.13;6.33;;;9.60;99.90;;;;;;4951016;29;20293;-71
2023/11/21 12:58:39;;;;;;;11.93;6.27;;;9.60;99.90;;;;;;4950286;29;20213;-70
2023/11/21 13:01:11;;;;;;;16.30;6.57;;;9.50;99.90;;;;;;4937010;29;20202;-71
2023/11/21 13:03:37;;;;;;;14.80;6.73;;;9.50;99.90;;;;;;4951133;29;20194;-71
2023/11/21 13:06:05;;;;;;;15.40;7.40;;;9.60;99.90;;;;;;4951089;29;20195;-71
2023/11/21 13:08:32;;;;;;;16.83;6.80;;;9.50;99.90;;;;;;4950374;28;20208;-70
2023/11/21 13:10:59;;;;;;;14.00;6.30;;;9.60;99.90;;;;;;4951094;28;20292;-71
2023/11/21 13:13:27;;;;;;;14.27;6.40;;;9.60;99.90;;;;;;4951471;28;20193;-70
2023/11/21 13:16:01;;;;;;;15.13;6.27;;;9.60;99.90;;;;;;4951714;28;20250;-71
2023/11/21 13:18:28;;;;;;;12.83;5.53;;;9.50;99.90;;;;;;4951520;29;20265;-71
2023/11/21 13:20:55;;;;;;;17.87;6.80;;;9.50;99.90;;;;;;4945427;28;20313;-70
2023/11/21 13:23:20;;;;;;;12.37;5.57;;;9.50;99.90;;;;;;4951578;28;20535;-71
2023/11/21 13:25:48;;;;;;;14.90;5.37;;;9.50;99.90;;;;;;4951702;29;20250;-70
2023/11/21 13:28:19;;;;;;;13.23;5.53;;;9.50;99.90;;;;;;4951205;28;20685;-69
2023/11/21 13:30:45;;;;;;;15.90;5.87;;;9.50;99.90;;;;;;4950772;28;20213;-71
2023/11/21 13:33:13;;;;;;;18.03;6.00;;;9.50;99.90;;;;;;4951428;28;20281;-71
2023/11/21 13:35:42;;;;;;;17.00;5.47;;;9.50;99.90;;;;;;4951399;29;20673;-71
2023/11/21 13:38:10;;;;;;;17.00;5.80;;;9.50;99.90;;;;;;4949917;28;20179;-70
2023/11/21 13:40:48;;;;;;;15.67;5.33;;;9.50;99.90;;;;;;4949602;28;20214;-70
2023/11/21 13:43:15;;;;;;;15.30;5.63;;;9.60;99.90;;;;;;4951017;28;20197;-70
2023/11/21 13:45:41;;;;;;;15.00;6.27;;;9.40;99.90;;;;;;4950838;29;20186;-71
2023/11/21 13:48:13;;;;;;;14.60;6.17;;;9.40;99.90;;;;;;4950738;28;20213;-71
2023/11/21 13:50:55;;;;;;;38.10;6.97;;;9.50;99.90;;;;;;4950097;28;20421;-70
2023/11/21 13:53:24;;;;;;;29.60;7.27;;;9.50;99.90;;;;;;4953794;28;20197;-71
2023/11/21 13:55:57;;;;;;;13.80;5.97;;;9.50;99.90;;;;;;4954747;29;20206;-71
2023/11/21 13:58:34;;;;;;;19.53;5.80;;;9.50;99.90;;;;;;4940345;28;20827;-70
2023/11/21 14:01:01;;;;;;;23.60;5.80;;;9.40;99.90;;;;;;4957633;28;20206;-70
2023/11/21 14:03:39;;;;;;;14.77;5.93;;;9.40;99.90;;;;;;4945327;29;20589;-70
2023/11/21 14:06:14;;;;;;;14.47;5.93;;;9.40;99.90;;;;;;4954427;28;20186;-70
2023/11/21 14:08:40;;;;;;;10.93;5.93;;;9.40;99.90;;;;;;4954583;28;20200;-70
2023/11/21 14:11:06;;;;;;;19.93;6.57;;;9.40;99.90;;;;;;4941525;29;20202;-70
2023/11/21 14:13:33;;;;;;;17.23;5.97;;;9.40;99.90;;;;;;4954398;29;20282;-70
2023/11/21 14:16:00;;;;;;;12.73;5.40;;;9.40;99.90;;;;;;4954282;28;20589;-70
2023/11/21 14:18:31;;;;;;;15.03;6.30;;;9.40;99.90;;;;;;4954196;29;20198;-71
2023/11/21 14:20:57;;;;;;;13.73;5.53;;;9.40;99.90;;;;;;4953741;28;20210;-70
2023/11/21 14:23:23;;;;;;;14.47;6.37;;;9.40;99.90;;;;;;4954142;29;20186;-70
2023/11/21 14:25:50;;;;;;;16.13;5.63;;;9.40;99.90;;;;;;4954092;28;20217;-70
2023/11/21 14:28:16;;;;;;;16.43;6.23;;;9.40;99.90;;;;;;4954561;29;20190;-71
2023/11/21 14:30:42;;;;;;;15.17;5.40;;;9.40;99.90;;;;;;4953379;28;20216;-70
2023/11/21 14:33:09;;;;;;;15.03;5.90;;;9.40;99.90;;;;;;4953995;29;20188;-70
2023/11/21 14:35:35;;;;;;;18.43;5.87;;;9.40;99.90;;;;;;4953953;29;20261;-70
2023/11/21 14:38:04;;;;;;;17.53;6.50;;;9.40;99.90;;;;;;4953828;28;20642;-70
2023/11/21 14:40:36;;;;;;;16.60;5.63;;;9.40;99.90;;;;;;4953349;28;20578;-70
2023/11/21 14:43:05;;;;;;;17.93;6.23;;;9.40;99.90;;;;;;4940273;29;20205;-70
2023/11/21 14:45:32;;;;;;;12.40;5.57;;;9.30;99.90;;;;;;4944617;28;20213;-70
2023/11/21 14:48:15;;;;;;;11.90;5.57;;;9.30;99.90;;;;;;4953265;29;20654;-70
2023/11/21 14:53:09;;;;;;;10.10;4.00;;;9.30;99.90;;;;;;4953234;28;20534;-70
2023/11/21 14:58:28;;;;;;;10.77;4.70;;;9.30;99.90;;;;;;4953641;29;20221;-70
2023/11/21 15:00:57;;;;;;;7.37;4.10;;;9.30;99.90;;;;;;4952850;28;20253;-70
2023/11/21 15:06:18;;;;;;;12.53;5.87;;;9.30;99.90;;;;;;4953469;28;20189;-70
2023/11/21 15:11:32;;;;;;;7.90;4.50;;;9.30;99.90;;;;;;4952809;28;20752;-70
2023/11/21 15:13:58;;;;;;;11.83;4.13;;;9.30;99.90;;;;;;4953629;28;20194;-70
2023/11/21 15:16:26;;;;;;;7.90;3.73;;;9.30;99.90;;;;;;4953377;28;20206;-70
2023/11/21 15:18:54;;;;;;;6.57;4.40;;;9.20;99.90;;;;;;4953640;29;20186;-71
2023/11/21 15:21:22;;;;;;;16.90;5.87;;;9.20;99.90;;;;;;4951712;28;20768;-71
2023/11/21 15:23:48;;;;;;;12.50;5.57;;;9.10;99.90;;;;;;4953885;28;20626;-71
2023/11/21 15:26:13;;;;;;;12.27;5.30;;;9.10;99.90;;;;;;4936094;29;20201;-70
2023/11/21 15:28:39;;;;;;;13.27;5.37;;;9.10;99.90;;;;;;4936320;29;20191;-71
2023/11/21 15:31:05;;;;;;;13.13;5.13;;;9.10;99.90;;;;;;4953022;28;20278;-72
2023/11/21 15:33:31;;;;;;;9.60;4.83;;;9.10;99.90;;;;;;4943997;29;20225;-70
2023/11/21 15:35:57;;;;;;;21.97;4.80;;;9.10;99.90;;;;;;4953266;29;20202;-70
2023/11/21 15:38:24;;;;;;;10.07;4.90;;;9.00;99.90;;;;;;4953084;29;20707;-71
2023/11/21 15:40:50;;;;;;;9.83;4.77;;;9.00;99.90;;;;;;4952509;28;20607;-71
2023/11/21 15:43:16;;;;;;;8.83;4.63;;;9.00;99.90;;;;;;4953087;28;20249;-70
2023/11/21 15:45:41;;;;;;;10.60;4.63;;;9.00;99.90;;;;;;4953074;29;20649;-70
2023/11/21 15:48:08;;;;;;;8.63;4.63;;;9.10;99.90;;;;;;4953064;28;20197;-70
2023/11/21 15:50:34;;;;;;;8.07;4.23;;;9.00;99.90;;;;;;4952246;28;20225;-70
2023/11/21 15:53:01;;;;;;;11.00;4.63;;;9.00;99.90;;;;;;4953080;29;20193;-70
2023/11/21 15:55:26;;;;;;;10.43;4.70;;;9.00;99.90;;;;;;4952687;29;20217;-70
2023/11/21 15:57:52;;;;;;;12.07;4.97;;;9.10;99.90;;;;;;4953009;29;20615;-70
2023/11/21 16:00:20;;;;;;;8.83;5.10;;;9.10;99.90;;;;;;4952034;28;20202;-70
2023/11/21 16:02:46;;;;;;;11.23;5.40;;;9.00;99.90;;;;;;4952839;28;20206;-70
2023/11/21 16:05:14;;;;;;;16.53;6.43;;;9.00;99.90;;;;;;4952160;28;20187;-71
2023/11/21 16:07:40;;;;;;;9.83;5.23;;;9.00;99.90;;;;;;4950115;28;20729;-70
2023/11/21 16:10:10;;;;;;;8.67;4.47;;;9.00;99.90;;;;;;4951475;28;20574;-70
2023/11/21 16:12:39;;;;;;;9.27;4.00;;;9.00;99.90;;;;;;4952252;29;20186;-70
2023/11/21 16:15:08;;;;;;;6.87;4.40;;;9.00;99.90;;;;;;4951975;28;20189;-71
2023/11/21 16:17:35;;;;;;;12.27;5.30;;;8.90;99.90;;;;;;4952022;28;20219;-70
2023/11/21 16:20:06;;;;;;;12.00;5.30;;;8.90;99.90;;;;;;4951994;28;20246;-70
2023/11/21 16:22:33;;;;;;;9.30;3.83;;;8.90;99.90;;;;;;4944997;29;20186;-70
2023/11/21 16:25:00;;;;;;;10.43;3.57;;;8.90;99.90;;;;;;4953154;28;20273;-70
2023/11/21 16:27:26;;;;;;;8.70;3.07;;;8.90;99.90;;;;;;4952749;29;20202;-70
2023/11/21 16:29:51;;;;;;;7.80;4.07;;;8.90;99.90;;;;;;4951643;28;20186;-70
2023/11/21 16:32:17;;;;;;;6.23;4.40;;;8.90;99.90;;;;;;4952289;29;20590;-70
2023/11/21 16:34:43;;;;;;;12.13;7.03;;;8.80;99.90;;;;;;4952368;28;20178;-70
2023/11/21 16:37:09;;;;;;;11.73;7.00;;;8.80;99.90;;;;;;4952227;28;20715;-70
2023/11/21 16:39:35;;;;;;;10.90;4.37;;;8.80;99.90;;;;;;4934414;29;20191;-70
2023/11/21 16:42:01;;;;;;;8.83;4.30;;;8.80;99.90;;;;;;4952363;29;20230;-70
2023/11/21 16:44:26;;;;;;;9.47;4.67;;;8.80;99.90;;;;;;4934922;29;20187;-70
2023/11/21 16:47:04;;;;;;;8.00;4.77;;;8.80;99.90;;;;;;4952374;29;20208;-70
2023/11/21 16:49:32;;;;;;;11.50;4.37;;;8.80;99.90;;;;;;4951632;28;20214;-70
2023/11/21 16:51:57;;;;;;;6.70;4.17;;;8.80;99.90;;;;;;4952195;28;20283;-70
2023/11/21 16:54:23;;;;;;;7.50;4.57;;;8.80;99.90;;;;;;4951979;28;20190;-70
2023/11/21 16:56:49;;;;;;;9.00;4.60;;;8.80;99.90;;;;;;4952108;29;20301;-70
2023/11/21 16:59:15;;;;;;;8.47;3.93;;;8.80;99.90;;;;;;4951599;29;20186;-71
2023/11/21 17:01:41;;;;;;;6.07;4.10;;;8.70;99.90;;;;;;4952106;28;20195;-70
2023/11/21 17:04:11;;;;;;;9.93;3.50;;;8.70;99.90;;;;;;4952127;28;20190;-70
2023/11/21 17:06:40;;;;;;;8.20;4.00;;;8.70;99.90;;;;;;4952196;28;20602;-70
2023/11/21 17:09:09;;;;;;;8.37;3.93;;;8.70;99.90;;;;;;4947451;29;20209;-71
2023/11/21 17:11:38;;;;;;;11.33;4.43;;;8.70;99.90;;;;;;4951902;28;20210;-70
2023/11/21 17:14:05;;;;;;;7.03;3.57;;;8.70;99.90;;;;;;4952117;28;20186;-70
2023/11/21 17:16:31;;;;;;;5.47;3.53;;;8.70;99.90;;;;;;4944182;28;20195;-70
2023/11/21 17:18:57;;;;;;;4.40;2.93;;;8.70;99.90;;;;;;4934937;29;20237;-71
2023/11/21 17:21:23;;;;;;;6.40;3.57;;;8.70;99.90;;;;;;4951124;28;20293;-70
2023/11/21 17:23:48;;;;;;;9.17;3.50;;;8.60;99.90;;;;;;4952176;29;20179;-70
2023/11/21 17:26:15;;;;;;;8.47;3.73;;;8.60;99.90;;;;;;4951795;28;20202;-70
2023/11/21 17:28:44;;;;;;;6.07;3.40;;;8.60;99.90;;;;;;4955228;28;20642;-70
2023/11/21 17:31:09;;;;;;;4.23;2.80;;;8.70;99.90;;;;;;4954824;28;20211;-70
2023/11/21 17:33:36;;;;;;;5.57;3.13;;;8.70;99.90;;;;;;4955575;28;20530;-71
2023/11/21 17:36:04;;;;;;;6.03;2.77;;;8.70;99.90;;;;;;4955502;29;20202;-71
2023/11/21 17:38:29;;;;;;;5.30;3.40;;;8.60;99.90;;;;;;4955264;28;20189;-70
2023/11/21 17:40:55;;;;;;;4.80;2.90;;;8.60;99.90;;;;;;4954608;28;20226;-70
2023/11/21 17:43:21;;;;;;;5.33;4.00;;;8.60;99.90;;;;;;4937782;29;20518;-70
2023/11/21 17:45:47;;;;;;;5.57;3.60;;;8.60;99.90;;;;;;4938330;29;20635;-71
2023/11/21 17:48:12;;;;;;;5.90;3.50;;;8.60;99.90;;;;;;4955229;29;20186;-70
2023/11/21 17:50:39;;;;;;;8.20;4.60;;;8.50;99.90;;;;;;4954517;28;20254;-70
2023/11/21 17:53:05;;;;;;;5.87;2.70;;;8.40;99.90;;;;;;4955282;29;20206;-70
2023/11/21 17:55:31;;;;;;;3.93;2.77;;;8.30;99.90;;;;;;4954701;28;20182;-70
2023/11/21 17:57:57;;;;;;;4.67;3.30;;;8.30;99.90;;;;;;4955331;29;20187;-70
2023/11/21 18:00:26;;;;;;;5.30;3.37;;;8.20;99.90;;;;;;4954301;28;20281;-70
2023/11/21 18:02:52;;;;;;;6.23;4.00;;;8.20;99.90;;;;;;4955087;28;20214;-71
2023/11/21 18:05:20;;;;;;;6.90;3.93;;;8.10;99.90;;;;;;4954854;29;20182;-71
2023/11/21 18:07:46;;;;;;;9.70;6.13;;;8.10;99.90;;;;;;4955030;28;20175;-71
2023/11/21 18:10:12;;;;;;;15.57;7.00;;;8.00;99.90;;;;;;4954045;28;20562;-70
2023/11/21 18:12:37;;;;;;;10.17;5.40;;;7.90;99.90;;;;;;4954899;29;20665;-70
2023/11/21 18:15:04;;;;;;;10.30;5.60;;;7.90;99.90;;;;;;4954857;29;20186;-70
2023/11/21 18:17:30;;;;;;;10.03;5.60;;;7.90;99.90;;;;;;4954434;29;20229;-71
2023/11/21 18:19:55;;;;;;;12.00;6.13;;;7.90;99.90;;;;;;4954059;28;20564;-72
2023/11/21 18:22:24;;;;;;;10.80;5.63;;;7.90;99.90;;;;;;4954506;28;20190;-70
2023/11/21 18:24:52;;;;;;;10.03;5.87;;;7.80;99.90;;;;;;4954684;28;20257;-71
2023/11/21 18:27:17;;;;;;;8.53;4.97;;;7.70;99.90;;;;;;4954542;28;20713;-70
2023/11/21 18:29:43;;;;;;;10.17;5.60;;;7.70;99.90;;;;;;4953957;28;20290;-70
2023/11/21 18:32:10;;;;;;;10.87;5.83;;;7.70;99.90;;;;;;4954434;29;20200;-71
2023/11/21 18:34:36;;;;;;;10.67;5.90;;;7.60;99.90;;;;;;4958415;28;20186;-71
2023/11/21 18:37:02;;;;;;;8.20;4.93;;;7.60;99.90;;;;;;4958215;28;20573;-71
2023/11/21 18:39:27;;;;;;;14.63;7.00;;;7.60;99.90;;;;;;4952841;28;20186;-70
2023/11/21 18:41:55;;;;;;;14.77;5.97;;;7.60;99.90;;;;;;4954201;28;20313;-70
2023/11/21 18:44:20;;;;;;;12.87;6.87;;;7.50;99.90;;;;;;4954147;29;20195;-71
2023/11/21 18:46:46;;;;;;;13.57;7.03;;;7.50;99.90;;;;;;4954325;29;20202;-70
2023/11/21 18:49:12;;;;;;;12.20;6.60;;;7.50;99.90;;;;;;4953569;28;20217;-71
2023/11/21 18:51:38;;;;;;;12.00;6.60;;;7.50;99.90;;;;;;4953808;28;20677;-70
2023/11/21 18:54:05;;;;;;;12.50;6.30;;;7.50;99.90;;;;;;4954149;28;20190;-71
2023/11/21 18:56:31;;;;;;;15.50;6.27;;;7.50;99.90;;;;;;4936566;29;20202;-70
2023/11/21 18:58:57;;;;;;;10.30;5.70;;;7.40;99.90;;;;;;4954065;28;20186;-70
2023/11/21 19:01:30;;;;;;;10.53;5.80;;;7.40;99.90;;;;;;4953266;28;20634;-71
2023/11/21 19:03:57;;;;;;;11.37;6.20;;;7.40;99.90;;;;;;4954114;29;20183;-70
2023/11/21 19:06:23;;;;;;;11.47;6.13;;;7.40;99.90;;;;;;4953714;28;20273;-70
2023/11/21 19:08:49;;;;;;;14.07;6.10;;;7.40;99.90;;;;;;4953710;29;20221;-71
2023/11/21 19:11:15;;;;;;;12.53;6.80;;;7.40;99.90;;;;;;4951728;28;20237;-70
2023/11/21 19:13:41;;;;;;;11.43;6.03;;;7.40;99.90;;;;;;4950961;29;20561;-70
2023/11/21 19:16:06;;;;;;;11.27;6.27;;;7.30;99.90;;;;;;4953564;29;20202;-70
2023/11/21 19:18:32;;;;;;;9.13;5.40;;;7.30;99.90;;;;;;4953707;29;20187;-70
2023/11/21 19:20:58;;;;;;;14.73;6.73;;;7.30;99.90;;;;;;4952115;28;20234;-70
2023/11/21 19:23:24;;;;;;;11.37;5.80;;;7.30;99.90;;;;;;4953624;28;20190;-70
2023/11/21 19:25:50;;;;;;;13.83;6.27;;;7.30;99.90;;;;;;4953619;29;20186;-70
2023/11/21 19:28:16;;;;;;;9.87;5.73;;;7.30;99.90;;;;;;4936427;29;20186;-70
2023/11/21 19:30:42;;;;;;;11.30;5.97;;;7.30;99.90;;;;;;4952725;28;20222;-70
2023/11/21 19:33:08;;;;;;;11.67;6.03;;;7.20;99.90;;;;;;4953020;29;20658;-71
2023/11/21 19:35:38;;;;;;;10.87;6.03;;;7.20;99.90;;;;;;4953209;29;20773;-70
2023/11/21 19:38:08;;;;;;;12.27;5.47;;;7.20;99.90;;;;;;4953361;29;20175;-70
2023/11/21 19:40:34;;;;;;;11.57;6.00;;;7.20;99.90;;;;;;4952414;28;20330;-70
2023/11/21 19:43:00;;;;;;;8.20;4.83;;;7.20;99.90;;;;;;4953032;28;20333;-70
2023/11/21 19:45:28;;;;;;;11.30;6.17;;;7.20;99.90;;;;;;4953038;29;20269;-70
2023/11/21 19:47:53;;;;;;;8.17;4.90;;;7.20;99.90;;;;;;4935905;29;20186;-70
2023/11/21 19:50:19;;;;;;;8.57;5.40;;;7.20;99.90;;;;;;4952036;28;20237;-70
2023/11/21 19:52:45;;;;;;;12.10;6.23;;;7.20;99.90;;;;;;4940839;28;20181;-70
2023/11/21 19:55:12;;;;;;;12.30;5.97;;;7.20;99.90;;;;;;4955826;28;20190;-69
2023/11/21 19:57:38;;;;;;;10.73;5.60;;;7.20;99.90;;;;;;4952919;29;20673;-69
2023/11/21 20:00:06;;;;;;;12.97;7.37;;;7.20;99.90;;;;;;4952243;28;20195;-70
2023/11/21 20:02:33;;;;;;;9.77;5.77;;;7.20;99.90;;;;;;4952430;29;20182;-69
2023/11/21 20:04:59;;;;;;;11.73;5.60;;;7.10;99.90;;;;;;4952838;29;20190;-69
2023/11/21 20:07:25;;;;;;;10.47;5.23;;;7.10;99.90;;;;;;4952708;29;20233;-70
2023/11/21 20:09:52;;;;;;;12.97;6.00;;;7.10;99.90;;;;;;4952064;28;20175;-69
2023/11/21 20:12:18;;;;;;;10.57;5.70;;;7.10;99.90;;;;;;4952235;28;20187;-71
2023/11/21 20:14:48;;;;;;;16.73;6.23;;;7.00;99.90;;;;;;4952823;28;20246;-70
2023/11/21 20:17:16;;;;;;;11.43;6.43;;;7.00;99.90;;;;;;4952501;28;20241;-69
2023/11/21 20:19:44;;;;;;;13.73;6.00;;;7.00;99.90;;;;;;4951762;28;20181;-69
2023/11/21 20:22:10;;;;;;;11.13;6.17;;;7.00;99.90;;;;;;4952210;29;20190;-70
2023/11/21 20:24:36;;;;;;;11.50;5.73;;;7.00;99.90;;;;;;4953018;28;20205;-69
2023/11/21 20:27:02;;;;;;;16.13;5.97;;;7.00;99.90;;;;;;4952116;28;20673;-69
2023/11/21 20:29:31;;;;;;;10.27;5.47;;;7.00;99.90;;;;;;4951861;29;20692;-70
2023/11/21 20:31:57;;;;;;;9.87;5.30;;;7.00;99.90;;;;;;4952552;28;20218;-69
2023/11/21 20:34:23;;;;;;;15.13;6.73;;;6.90;99.90;;;;;;4952419;28;20182;-69
2023/11/21 20:36:49;;;;;;;9.40;4.70;;;7.00;99.90;;;;;;4952203;29;20419;-70
2023/11/21 20:39:18;;;;;;;11.90;5.50;;;6.90;99.90;;;;;;4933988;29;20190;-71
2023/11/21 20:41:44;;;;;;;10.23;5.77;;;6.90;99.90;;;;;;4951408;28;20210;-69